Ystrad Meurig, United Kingdom
Current Conditions -  °F | °C
As of 7:50 AM on Saturday 25 Oct 2014 (Local Time) from EGOP Reporting Station
Broken Clouds Broken Clouds  
Wind Chill: 55°   Ceiling: 4500
Heat Index: 55°   Visibility: 6mi
Dew Point: 50°   Wind: 25mph
Humidity: 82%   Direction: 240°WSW
Pressure: 30"   Gusts: NA
Location:  52.29°N, 3.9°W
Report Text: EGOP 250650Z AUTO 24022KT 9999 // BKN045/// 13/10 Q1016
Loading
Personal Weather Stations






























Interactive Weather Map
Tropical Storm Tracking
New forecast layout! Learn more

10-Day Weather Forecast

Advertisements
Track Severe Weather on mobile